Impacts METAR Board
IDs:

KPIT - Pittsburgh Intl, PA, US

Updated at: 0300 UTC 23 Oct 2018
Potential Impact None Slight Moderate High
Time 22/15Z 22/16Z 22/17Z 22/18Z 22/19Z 22/20Z 22/21Z 22/22Z 22/23Z 23/00Z 23/01Z 23/02Z 23/03Z
Temp42 46 51 51 53 54 55 54 53 51 51 50 49
Dewpt32 31 30 29 29 30 30 30 33 37 35 34 35
Altim30.18 30.16 30.14 30.10 30.08 30.07 30.06 30.06 30.06 30.06 30.06 30.07 30.06
VIS10 10 10 10 10 10 10 10 10 10 10 10 10
CIG160 250 250 -- 250 -- -- 70 70 65 65 60 60
CoverBKNBKNBKNSCTBKNSCTSCTBKNOVCOVCOVCOVCBKN
FltCatVFRVFRVFRVFRVFRVFRVFRVFRVFRVFRVFRVFRVFR
WX--------------------------
WDir22023023021023024023021000180180190
WSpd9 11 13 11 10 10 10 6 0 0 4 3 3
WGst-- 21 19 18 -- 16 -- -- -- -- -- -- --
Raw hourly METARs
KPIT 221451Z 22009KT 10SM BKN160 BKN250 06/00 A3018 RMK AO2 SLP237 T00560000 58008
KPIT 221551Z 23011G21KT 10SM SCT180 BKN250 08/M01 A3016 RMK AO2 SLP231 T00781006
KPIT 221651Z 23013G19KT 10SM SCT180 BKN250 11/M01 A3014 RMK AO2 SLP220 T01061011
KPIT 221751Z 21011G18KT 10SM SCT180 SCT250 11/M02 A3010 RMK AO2 SLP209 T01061017 10106 21006 58025
KPIT 221851Z 23010KT 10SM SCT180 BKN250 12/M02 A3008 RMK AO2 SLP202 T01171017
KPIT 221951Z 24010G16KT 10SM FEW075 SCT180 SCT250 12/M01 A3007 RMK AO2 SLP197 T01221011
KPIT 222051Z 23010KT 10SM FEW070 FEW180 SCT250 13/M01 A3006 RMK AO2 SLP194 T01281011 56014
KPIT 222151Z 21006KT 10SM BKN070 12/M01 A3006 RMK AO2 SLP192 T01221011
KPIT 222251Z 00000KT 10SM OVC070 12/01 A3006 RMK AO2 SLP192 BINOVC T01170006
KPIT 222351Z 00000KT 10SM OVC065 11/03 A3006 RMK AO2 SLP195 T01060028 10128 20100 53000
KPIT 230051Z 18004KT 10SM OVC065 11/02 A3006 RMK AO2 SLP194 T01060017
KPIT 230151Z 18003KT 10SM OVC060 10/01 A3007 RMK AO2 SLP194 T01000011
KPIT 230251Z 19003KT 10SM BKN060 09/02 A3006 RMK AO2 SLP191 T00940017 58002



Page loaded:  03:47 UTC  |   08:47 PM Pacific  |   09:47 PM Mountain  |   10:47 PM Central  |   11:47 PM Eastern

 

ADVISORIES

FORECASTS

FORECASTS

OBSERVATIONS

USER TOOLS

ABOUT US